Glade Park, CO (81523)

2:36 PM MDT on August 27, 2015 (GMT -0600)
Unaweep Canyon | | Change Station
CLOSE
Current Station
Personal Weather Station
Location: Colorado, CO
Elevation: 6923 ft
Nearby Weather Stations

Elev 6923 ft 38.81 °N, 108.62 °W | Updated 3 minutes ago

Partly Cloudy
Partly Cloudy
71.1 °F
Feels Like 76 °F
N
11.4
Wind Variable Wind from WSW

Today
High -- | Low -- °F
--% Chance of Precip.
Yesterday
High -- | Low -- °F
Precip. -- in
6:39 AM 7:53 PM
Waxing Gibbous, 95% visible
Pressure 30.25 in
Visibility 7.0 miles
Clouds Clear
Heat Index 76 °F
Dew Point 56 °F
Humidity 58%
Rainfall 0.66 in
Snow Depth Not available.
UV 10 out of 12
Pollen 6.40 out of 12
Air Quality Not available.
Flu Activity Not available.
METAR KAJZ 272015Z AUTO 27004KT 7SM RA CLR 26/14 A3025 RMK AO2 T02640141
Pressure 30.25 in
Visibility 7.0 miles
Clouds Clear
Heat Index 76 °F
Dew Point 56 °F
Humidity 58%
Rainfall 0.66 in
Snow Depth Not available.
UV 10 out of 12
Pollen 6.40 out of 12
Air Quality Not available.
Flu Activity Not available.
METAR KAJZ 272015Z AUTO 27004KT 7SM RA CLR 26/14 A3025 RMK AO2 T02640141

10-Day Weather Forecast

×

Almanac

Astronomy

Aug. 27, 2015 Rise Set
Actual Time
Civil Twilight
Nautical Twilight
Astronomical Twilight
Moon
Length of Visible Light
Length of Day
Tomorrow will be .
, % of the Moon is Illuminated

Today's Extremes

State Highs State Lows

Community

WunderPhotos

Upload Photos

1,850,206 photos uploaded!

WunderBlogs® & News

Nearby

Air Quality

  Air Quality AQ Index Pollutant
Not available.

Snow Depth

Station Depth Elevation

Earthquake Activity

City Distance Mag. Time & Date
Minimum magnitude displayed is 2.5.

Coastal Water Temperatures

Place Temperature

Stations

Nearby Weather Stations

Station Location Temp. Windchill Dew Point Humidity Wind Precip. Elev Updated Type